Time;durP1;ratioP1;P1;durP2;ratioP2;P2;SDS_P1;SDS_P2;PMS_P1;PMS_P2;Temp;Humidity;BMP_temperature;BMP_pressure;BME280_temperature;BME280_humidity;BME280_pressure;Samples;Min_cycle;Max_cycle;Signal;HPM_P1;HPM_P2
2022/11/25 00:01:44;;;;;;;132.50;60.50;;;;;;;3.21;97.39;100290.16;102762;1285;23091;-63
2022/11/25 00:04:16;;;;;;;132.50;62.40;;;;;;;3.23;97.40;100289.73;102947;1309;22582;-63
2022/11/25 00:06:47;;;;;;;131.80;59.40;;;;;;;3.23;97.47;100288.86;102995;1285;24223;-63
2022/11/25 00:09:19;;;;;;;123.60;58.00;;;;;;;3.24;97.60;100288.06;103001;1309;24276;-63
2022/11/25 00:11:51;;;;;;;119.40;57.30;;;;;;;3.26;97.68;100285.96;103033;1309;25200;-62
2022/11/25 00:14:23;;;;;;;121.70;56.10;;;;;;;3.28;97.64;100285.29;103008;1283;25229;-63
2022/11/25 00:16:54;;;;;;;114.00;55.80;;;;;;;3.31;97.66;100287.35;102881;1283;22564;-63
2022/11/25 00:19:26;;;;;;;116.70;53.30;;;;;;;3.34;97.76;100289.35;103017;1286;22487;-64
2022/11/25 00:21:58;;;;;;;109.90;50.40;;;;;;;3.36;97.58;100286.39;102934;1309;25668;-64
2022/11/25 00:24:30;;;;;;;120.70;56.60;;;;;;;3.35;97.66;100287.33;102981;1285;23165;-64
2022/11/25 00:27:03;;;;;;;109.40;53.20;;;;;;;3.35;97.63;100286.48;103032;1309;25320;-62
2022/11/25 00:29:35;;;;;;;125.20;54.80;;;;;;;3.37;97.67;100286.83;102959;1285;22493;-63
2022/11/25 00:32:06;;;;;;;110.80;50.40;;;;;;;3.39;97.71;100286.55;102987;1293;24284;-63
2022/11/25 00:34:38;;;;;;;118.30;55.60;;;;;;;3.40;97.71;100280.20;102972;1283;22481;-63
2022/11/25 00:37:09;;;;;;;111.90;51.80;;;;;;;3.41;97.78;100287.36;102904;1309;25200;-63
2022/11/25 00:39:40;;;;;;;100.50;45.70;;;;;;;3.41;97.85;100296.10;103039;1284;22435;-63
2022/11/25 00:45:01;;;;;;;98.10;44.60;;;;;;;3.44;98.15;100297.13;102910;1309;22667;-63
2022/11/25 00:47:33;;;;;;;104.90;46.40;;;;;;;3.45;98.06;100297.85;103082;1284;22482;-63
2022/11/25 00:50:05;;;;;;;92.80;44.70;;;;;;;3.43;98.04;100297.95;102903;1285;25318;-64
2022/11/25 00:52:37;;;;;;;88.10;37.30;;;;;;;3.43;98.01;100294.66;102957;1285;22490;-64
2022/11/25 00:55:09;;;;;;;85.00;36.50;;;;;;;3.44;98.50;100296.43;102905;1291;22881;-64
2022/11/25 00:57:40;;;;;;;97.20;44.10;;;;;;;3.47;98.58;100300.48;103019;1280;25301;-63
2022/11/25 01:00:14;;;;;;;105.40;46.90;;;;;;;3.48;98.57;100303.75;102918;1284;23228;-63
2022/11/25 01:02:46;;;;;;;107.80;46.60;;;;;;;3.48;98.39;100301.08;102960;1309;25345;-63
2022/11/25 01:05:18;;;;;;;99.60;46.80;;;;;;;3.51;98.45;100297.46;102954;1283;25544;-64
2022/11/25 01:07:49;;;;;;;106.30;47.90;;;;;;;3.54;98.42;100301.02;103062;1285;22471;-64
2022/11/25 01:10:20;;;;;;;104.90;47.60;;;;;;;3.58;98.52;100306.36;103065;1282;22594;-64
2022/11/25 01:12:52;;;;;;;96.20;44.80;;;;;;;3.61;98.37;100308.42;103128;1280;22480;-64
2022/11/25 01:15:23;;;;;;;96.10;47.60;;;;;;;3.61;98.22;100309.92;103208;1302;22516;-65
2022/11/25 01:17:55;;;;;;;99.20;47.80;;;;;;;3.59;98.03;100306.03;103199;1305;25578;-64
2022/11/25 01:20:27;;;;;;;107.80;47.00;;;;;;;3.58;98.07;100306.77;103236;1281;22474;-64
2022/11/25 01:22:59;;;;;;;105.90;48.90;;;;;;;3.57;98.19;100307.56;103107;1280;23203;-63
2022/11/25 01:25:31;;;;;;;95.40;45.00;;;;;;;3.57;98.24;100302.98;103005;1281;22518;-63
2022/11/25 01:28:03;;;;;;;103.10;47.20;;;;;;;3.58;98.27;100301.46;103094;1304;22481;-64
2022/11/25 01:30:35;;;;;;;88.50;43.10;;;;;;;3.60;98.37;100300.40;103057;1281;25288;-64
2022/11/25 01:33:07;;;;;;;89.90;40.40;;;;;;;3.62;98.43;100298.62;103240;1282;22486;-64
2022/11/25 01:35:40;;;;;;;95.50;41.80;;;;;;;3.65;98.53;100300.42;103147;1305;22473;-63
2022/11/25 01:38:11;;;;;;;96.30;42.00;;;;;;;3.68;98.55;100304.00;103155;1280;25518;-62
2022/11/25 01:40:44;;;;;;;90.60;38.70;;;;;;;3.71;98.55;100302.67;102994;1287;25284;-63
2022/11/25 01:43:16;;;;;;;92.30;41.50;;;;;;;3.72;98.46;100302.15;102318;1305;1364032;-64
2022/11/25 01:45:49;;;;;;;90.10;40.10;;;;;;;3.75;98.55;100305.57;103200;1298;22479;-64
2022/11/25 01:48:25;;;;;;;92.50;40.60;;;;;;;3.79;98.58;100301.99;103301;1280;25298;-64
2022/11/25 01:50:56;;;;;;;88.10;38.00;;;;;;;3.81;98.59;100301.30;103148;1304;25198;-64
2022/11/25 01:53:28;;;;;;;93.50;40.10;;;;;;;3.82;98.47;100302.61;103114;1290;22490;-63
2022/11/25 01:56:03;;;;;;;94.40;43.10;;;;;;;3.84;98.49;100304.95;103125;1305;24314;-63
2022/11/25 01:58:38;;;;;;;97.20;42.80;;;;;;;3.86;98.55;100304.17;103102;1284;26508;-63
2022/11/25 02:01:10;;;;;;;94.50;41.20;;;;;;;3.87;98.53;100307.63;103155;1281;22607;-63
2022/11/25 02:03:46;;;;;;;92.80;41.60;;;;;;;3.89;98.50;100306.86;103145;1282;22508;-63
2022/11/25 02:06:23;;;;;;;88.60;41.80;;;;;;;3.89;98.47;100309.77;103111;1305;23009;-62
2022/11/25 02:08:58;;;;;;;97.10;41.20;;;;;;;3.90;98.49;100310.16;103155;1305;22731;-63
2022/11/25 02:11:31;;;;;;;88.80;40.80;;;;;;;3.93;98.58;100306.14;103461;1274;22544;-63
2022/11/25 02:14:04;;;;;;;91.40;40.90;;;;;;;3.95;98.54;100304.66;103144;1305;25268;-63
2022/11/25 02:16:35;;;;;;;87.10;39.10;;;;;;;3.95;98.41;100300.40;103069;1305;25176;-61
2022/11/25 02:19:11;;;;;;;86.80;38.90;;;;;;;3.96;98.43;100298.41;103146;1285;23092;-63
2022/11/25 02:21:47;;;;;;;81.80;37.40;;;;;;;3.96;98.45;100297.16;103165;1283;25312;-62
2022/11/25 02:24:29;;;;;;;94.50;41.00;;;;;;;3.95;98.35;100292.66;103091;1282;22459;-64
2022/11/25 02:27:02;;;;;;;115.10;48.10;;;;;;;3.94;98.32;100292.70;103119;1305;22476;-63
2022/11/25 02:29:35;;;;;;;128.80;54.40;;;;;;;3.95;98.37;100295.89;103482;1291;22463;-64
2022/11/25 02:32:07;;;;;;;114.90;49.80;;;;;;;3.96;98.32;100298.41;103256;1277;22486;-65
2022/11/25 02:34:48;;;;;;;104.20;45.40;;;;;;;3.95;98.34;100301.05;103106;1285;24260;-64
2022/11/25 02:37:23;;;;;;;95.80;45.40;;;;;;;3.95;98.28;100296.88;103097;1304;24296;-63
2022/11/25 02:39:55;;;;;;;112.00;48.90;;;;;;;3.93;98.13;100299.42;103151;1285;22486;-64
2022/11/25 02:42:29;;;;;;;99.80;46.70;;;;;;;3.93;98.16;100306.30;103150;1281;24437;-64
2022/11/25 02:45:01;;;;;;;92.40;44.40;;;;;;;3.94;98.16;100309.25;103038;1305;25391;-63
2022/11/25 02:47:32;;;;;;;98.50;46.90;;;;;;;3.93;98.13;100314.48;103072;1274;25384;-64
2022/11/25 02:50:04;;;;;;;94.40;43.10;;;;;;;3.93;98.17;100313.10;103213;1281;25204;-63
2022/11/25 02:52:36;;;;;;;99.80;45.60;;;;;;;3.92;98.20;100317.77;103140;1304;23967;-63
2022/11/25 02:55:09;;;;;;;93.90;44.10;;;;;;;3.92;98.26;100318.33;103107;1280;22495;-63
2022/11/25 02:57:40;;;;;;;94.90;46.80;;;;;;;3.91;98.20;100322.67;103086;1305;22486;-63
2022/11/25 03:00:13;;;;;;;94.00;43.90;;;;;;;3.91;98.30;100324.57;103087;1280;25204;-63
2022/11/25 03:02:44;;;;;;;98.60;46.70;;;;;;;3.91;98.31;100326.41;103167;1298;22464;-64
2022/11/25 03:05:16;;;;;;;102.60;47.20;;;;;;;3.91;98.36;100325.21;103093;1305;24243;-62
2022/11/25 03:07:48;;;;;;;101.10;45.30;;;;;;;3.90;98.44;100324.98;103073;1284;24299;-63
2022/11/25 03:10:20;;;;;;;107.90;48.70;;;;;;;3.90;98.44;100323.48;103089;1284;25319;-63
2022/11/25 03:12:52;;;;;;;100.20;51.10;;;;;;;3.91;98.43;100324.02;103140;1304;24325;-62
2022/11/25 03:15:24;;;;;;;105.20;49.40;;;;;;;3.90;98.52;100320.72;103110;1292;22486;-63
2022/11/25 03:17:55;;;;;;;111.50;53.20;;;;;;;3.91;98.51;100326.57;103129;1282;25278;-64
2022/11/25 03:20:27;;;;;;;103.90;50.60;;;;;;;3.91;98.59;100330.41;103123;1281;22475;-64
2022/11/25 03:22:58;;;;;;;119.80;53.20;;;;;;;3.93;98.64;100332.27;103136;1305;22478;-64
2022/11/25 03:25:30;;;;;;;105.40;49.10;;;;;;;3.94;98.62;100332.16;103055;1281;22496;-63
2022/11/25 03:28:02;;;;;;;104.30;50.50;;;;;;;3.95;98.63;100333.79;103081;1284;24395;-64
2022/11/25 03:30:33;;;;;;;107.30;50.20;;;;;;;3.95;98.68;100332.69;103280;1291;25440;-63
2022/11/25 03:33:05;;;;;;;114.00;51.30;;;;;;;3.94;98.53;100331.91;103187;1284;25470;-63
2022/11/25 03:35:36;;;;;;;106.70;50.90;;;;;;;3.95;98.63;100330.23;103128;1305;24248;-64
2022/11/25 03:38:08;;;;;;;110.60;52.40;;;;;;;3.95;98.72;100332.92;103007;1274;22481;-63
2022/11/25 03:40:39;;;;;;;106.70;51.20;;;;;;;3.95;98.75;100335.20;103088;1277;22472;-63
2022/11/25 03:43:11;;;;;;;102.30;48.70;;;;;;;3.96;98.78;100337.06;103192;1300;22485;-63
2022/11/25 03:45:43;;;;;;;100.70;48.80;;;;;;;3.98;98.76;100333.08;103174;1289;23920;-64
2022/11/25 03:48:14;;;;;;;98.10;46.70;;;;;;;4.00;98.75;100332.71;103052;1281;24238;-63
2022/11/25 03:50:48;;;;;;;100.50;47.20;;;;;;;4.02;98.74;100339.38;103110;1281;25306;-63
2022/11/25 03:53:19;;;;;;;102.50;45.70;;;;;;;4.02;98.76;100337.64;103242;1305;22478;-64
2022/11/25 03:55:51;;;;;;;103.40;47.60;;;;;;;4.03;98.70;100342.24;103026;1281;23216;-63
2022/11/25 03:58:22;;;;;;;111.60;48.70;;;;;;;4.04;98.69;100341.53;103154;1289;25315;-64
2022/11/25 04:00:53;;;;;;;104.00;46.90;;;;;;;4.04;98.67;100342.10;103180;1297;22488;-64
2022/11/25 04:03:25;;;;;;;104.70;47.50;;;;;;;4.04;98.63;100341.63;103276;1305;22581;-63
2022/11/25 04:05:57;;;;;;;107.90;48.60;;;;;;;4.03;98.61;100339.03;103105;1305;25448;-63
2022/11/25 04:08:29;;;;;;;106.70;48.80;;;;;;;4.00;98.59;100338.08;103128;1281;22522;-64
2022/11/25 04:11:01;;;;;;;93.30;43.50;;;;;;;3.98;98.60;100338.11;103105;1284;22527;-64
2022/11/25 04:13:32;;;;;;;101.70;46.20;;;;;;;3.98;98.58;100337.67;102959;1291;25317;-64
2022/11/25 04:16:04;;;;;;;100.90;45.80;;;;;;;3.95;98.58;100339.39;103016;1274;23766;-62
2022/11/25 04:18:35;;;;;;;92.70;44.80;;;;;;;3.95;98.61;100338.61;103123;1305;24222;-62
2022/11/25 04:21:08;;;;;;;106.20;49.50;;;;;;;3.95;98.66;100338.67;103110;1288;22478;-64
2022/11/25 04:23:40;;;;;;;100.60;47.60;;;;;;;3.95;98.62;100340.27;103206;1289;25430;-63
2022/11/25 04:26:12;;;;;;;96.20;48.50;;;;;;;3.94;98.59;100341.23;103140;1304;25376;-62
2022/11/25 04:28:44;;;;;;;103.00;47.10;;;;;;;3.95;98.67;100344.98;103166;1304;26478;-64
2022/11/25 04:31:16;;;;;;;91.50;44.70;;;;;;;3.95;98.66;100345.64;103136;1281;25241;-63
2022/11/25 04:33:48;;;;;;;99.40;45.30;;;;;;;3.95;98.76;100348.46;103109;1281;22529;-63
2022/11/25 04:36:20;;;;;;;100.90;46.50;;;;;;;3.95;98.77;100349.35;103092;1274;22469;-64
2022/11/25 04:38:51;;;;;;;97.60;44.70;;;;;;;3.96;98.89;100349.31;103070;1306;22477;-64
2022/11/25 04:41:23;;;;;;;94.30;46.10;;;;;;;3.98;98.88;100352.66;103179;1282;24441;-63
2022/11/25 04:43:54;;;;;;;107.80;49.50;;;;;;;3.98;98.90;100355.66;103274;1280;26520;-64
2022/11/25 04:46:36;;;;;;;101.80;46.10;;;;;;;3.98;98.88;100358.98;103296;1282;22478;-61
2022/11/25 04:49:08;;;;;;;101.20;48.00;;;;;;;3.98;98.98;100357.71;103116;1305;22481;-63
2022/11/25 04:51:42;;;;;;;106.40;48.00;;;;;;;3.98;98.99;100352.73;103052;1281;22477;-63
2022/11/25 04:54:14;;;;;;;106.40;49.90;;;;;;;4.00;98.97;100353.64;103081;1305;23910;-64
2022/11/25 04:56:46;;;;;;;103.00;47.00;;;;;;;3.99;98.93;100354.35;103178;1305;25351;-64
2022/11/25 05:02:06;;;;;;;100.10;46.70;;;;;;;4.00;98.95;100359.64;103014;1300;22486;-66
2022/11/25 05:04:38;;;;;;;101.40;48.90;;;;;;;4.00;98.99;100363.34;103152;1282;22480;-67
2022/11/25 05:07:09;;;;;;;104.40;48.70;;;;;;;3.99;98.97;100358.69;103062;1296;22476;-67
2022/11/25 05:09:41;;;;;;;105.40;45.30;;;;;;;4.00;98.93;100359.87;103209;1282;22486;-66
2022/11/25 05:12:14;;;;;;;102.60;45.80;;;;;;;4.00;99.05;100359.70;103224;1305;25836;-67
2022/11/25 05:14:46;;;;;;;102.80;46.50;;;;;;;4.01;99.07;100364.18;103526;1305;24365;-69
2022/11/25 05:17:20;;;;;;;99.50;47.30;;;;;;;4.02;99.07;100364.46;102998;1274;22468;-58
2022/11/25 05:19:52;;;;;;;105.60;45.60;;;;;;;4.03;99.07;100365.06;103167;1280;24236;-58
2022/11/25 05:22:25;;;;;;;95.10;45.50;;;;;;;4.03;99.07;100365.38;103307;1277;22467;-60
2022/11/25 05:24:57;;;;;;;100.50;45.70;;;;;;;4.04;99.07;100359.93;103192;1274;22484;-59
2022/11/25 05:27:29;;;;;;;100.80;46.40;;;;;;;4.04;99.06;100363.55;103184;1281;22490;-59
2022/11/25 05:30:01;;;;;;;112.20;47.60;;;;;;;4.04;99.09;100369.55;103254;1275;22479;-58
2022/11/25 05:32:33;;;;;;;100.20;46.00;;;;;;;4.04;99.16;100374.36;103114;1281;22507;-59
2022/11/25 05:35:05;;;;;;;97.70;43.90;;;;;;;4.05;99.06;100379.72;103116;1283;22470;-59
2022/11/25 05:37:36;;;;;;;102.40;48.00;;;;;;;4.06;99.08;100385.08;103050;1274;22466;-60
2022/11/25 05:40:10;;;;;;;96.60;47.00;;;;;;;4.04;99.09;100390.55;103236;1282;24361;-57
2022/11/25 05:42:41;;;;;;;105.50;47.40;;;;;;;4.06;99.20;100395.79;103210;1305;24220;-60
2022/11/25 05:45:13;;;;;;;102.90;45.00;;;;;;;4.08;99.16;100395.19;103142;1282;25054;-57
2022/11/25 05:47:44;;;;;;;95.20;42.80;;;;;;;4.09;99.26;100389.08;103141;1304;26488;-58
2022/11/25 05:50:17;;;;;;;102.30;47.80;;;;;;;4.12;99.20;100389.27;103176;1284;23744;-58
2022/11/25 05:52:48;;;;;;;100.90;46.60;;;;;;;4.11;99.11;100396.31;102989;1281;23089;-59
2022/11/25 05:55:20;;;;;;;100.80;44.20;;;;;;;4.09;99.05;100394.69;103082;1281;22462;-61
2022/11/25 05:57:52;;;;;;;95.20;42.80;;;;;;;4.08;99.03;100404.66;103008;1288;25322;-58
2022/11/25 06:00:24;;;;;;;97.00;45.00;;;;;;;4.06;99.01;100405.50;103132;1277;25290;-57
2022/11/25 06:02:55;;;;;;;111.20;49.10;;;;;;;4.07;99.20;100405.96;103324;1305;22532;-58
2022/11/25 06:05:27;;;;;;;105.80;47.00;;;;;;;4.07;99.15;100401.30;103374;1281;22506;-57
2022/11/25 06:07:58;;;;;;;105.80;51.00;;;;;;;4.07;99.16;100398.05;103066;1287;22621;-57
2022/11/25 06:10:30;;;;;;;101.20;46.40;;;;;;;4.06;99.16;100406.29;103021;1274;22468;-59
2022/11/25 06:13:01;;;;;;;111.00;48.80;;;;;;;4.05;99.10;100407.27;103184;1304;22472;-56
2022/11/25 06:15:33;;;;;;;101.60;48.20;;;;;;;4.05;99.16;100408.05;103194;1305;22484;-58
2022/11/25 06:18:04;;;;;;;105.90;46.70;;;;;;;4.06;99.21;100409.60;103304;1282;22472;-58
2022/11/25 06:20:37;;;;;;;101.00;49.00;;;;;;;4.09;99.22;100410.33;103246;1300;25233;-59
2022/11/25 06:23:09;;;;;;;108.30;53.00;;;;;;;4.09;99.21;100417.03;103207;1274;25544;-59
2022/11/25 06:25:41;;;;;;;117.10;53.30;;;;;;;4.10;99.26;100416.61;103171;1305;24266;-58
2022/11/25 06:28:12;;;;;;;123.10;57.10;;;;;;;4.12;99.23;100415.23;103168;1281;24246;-58
2022/11/25 06:30:44;;;;;;;123.00;59.50;;;;;;;4.12;99.18;100419.17;103223;1284;22455;-59
2022/11/25 06:33:15;;;;;;;125.70;57.00;;;;;;;4.13;99.22;100417.41;103203;1283;24307;-59
2022/11/25 06:35:47;;;;;;;117.10;53.80;;;;;;;4.14;99.20;100423.25;103190;1286;22480;-58
2022/11/25 06:38:18;;;;;;;113.70;53.10;;;;;;;4.14;99.21;100419.39;103238;1275;22445;-59
2022/11/25 06:40:50;;;;;;;107.30;52.50;;;;;;;4.15;99.22;100416.59;103225;1304;22482;-58
2022/11/25 06:43:22;;;;;;;103.60;50.80;;;;;;;4.16;99.20;100419.07;103129;1281;22474;-58
2022/11/25 06:45:54;;;;;;;109.30;50.60;;;;;;;4.17;99.12;100423.33;103256;1280;24320;-59
2022/11/25 06:48:27;;;;;;;104.00;50.00;;;;;;;4.17;99.12;100425.30;103211;1274;22515;-59
2022/11/25 06:51:01;;;;;;;99.10;47.70;;;;;;;4.17;99.14;100428.13;103099;1285;25296;-60
2022/11/25 06:53:33;;;;;;;101.70;47.50;;;;;;;4.16;99.17;100428.95;103230;1289;24437;-61
2022/11/25 06:56:08;;;;;;;104.40;49.60;;;;;;;4.18;99.34;100428.66;103155;1277;24284;-60
2022/11/25 06:58:40;;;;;;;104.20;47.90;;;;;;;4.20;99.33;100428.94;103039;1281;23663;-61
2022/11/25 07:01:16;;;;;;;107.90;50.30;;;;;;;4.22;99.32;100429.52;103139;1284;25398;-59
2022/11/25 07:03:48;;;;;;;112.00;51.40;;;;;;;4.23;99.43;100429.73;103149;1277;22469;-58
2022/11/25 07:06:21;;;;;;;102.60;50.30;;;;;;;4.25;99.34;100432.61;103094;1299;22460;-56
2022/11/25 07:08:53;;;;;;;106.30;50.00;;;;;;;4.25;99.44;100436.47;103106;1305;25152;-57
2022/11/25 07:11:26;;;;;;;96.50;49.50;;;;;;;4.27;99.49;100436.74;103131;1280;22474;-57
2022/11/25 07:14:00;;;;;;;99.70;48.20;;;;;;;4.29;99.56;100441.75;103214;1274;24309;-60
2022/11/25 07:16:32;;;;;;;95.40;44.60;;;;;;;4.31;99.59;100439.73;102989;1285;22490;-58
2022/11/25 07:19:04;;;;;;;102.60;48.60;;;;;;;4.33;99.56;100446.85;103079;1274;22590;-59
2022/11/25 07:21:36;;;;;;;111.00;51.00;;;;;;;4.36;99.69;100445.21;103093;1285;25293;-57
2022/11/25 07:24:10;;;;;;;110.50;53.20;;;;;;;4.38;99.74;100445.61;103138;1284;22597;-59
2022/11/25 07:26:45;;;;;;;112.50;54.00;;;;;;;4.39;99.78;100448.67;103155;1282;24223;-58
2022/11/25 07:29:18;;;;;;;110.10;53.30;;;;;;;4.40;99.92;100452.05;103096;1274;22935;-59
2022/11/25 07:31:50;;;;;;;103.30;49.80;;;;;;;4.43;99.92;100449.62;103183;1274;22505;-60
2022/11/25 07:34:23;;;;;;;102.90;49.70;;;;;;;4.45;100.00;100452.94;103251;1274;24283;-59
2022/11/25 07:36:55;;;;;;;100.40;49.30;;;;;;;4.47;99.99;100451.48;103054;1284;25102;-56
2022/11/25 07:39:26;;;;;;;107.80;49.80;;;;;;;4.50;100.00;100453.31;103116;1281;24452;-58
2022/11/25 07:41:58;;;;;;;105.20;49.60;;;;;;;4.53;100.00;100449.77;103178;1305;24210;-57
2022/11/25 07:44:29;;;;;;;100.80;49.80;;;;;;;4.57;100.00;100455.34;103052;1284;22708;-60
2022/11/25 07:47:00;;;;;;;108.30;49.90;;;;;;;4.62;100.00;100456.57;103134;1292;26130;-59
2022/11/25 07:49:32;;;;;;;96.20;47.70;;;;;;;4.66;100.00;100457.10;103247;1283;22708;-58
2022/11/25 07:52:06;;;;;;;105.50;50.10;;;;;;;4.71;100.00;100455.78;103033;1281;25271;-60
2022/11/25 07:54:37;;;;;;;115.80;49.90;;;;;;;4.76;100.00;100456.92;103348;1274;22490;-58
2022/11/25 07:57:09;;;;;;;118.60;49.40;;;;;;;4.80;100.00;100456.10;103230;1304;22610;-60
2022/11/25 07:59:40;;;;;;;109.10;51.10;;;;;;;4.83;100.00;100456.98;103348;1296;22489;-57
2022/11/25 08:02:12;;;;;;;119.00;53.30;;;;;;;4.87;100.00;100459.48;103134;1284;24760;-59
2022/11/25 08:04:44;;;;;;;106.00;51.30;;;;;;;4.90;100.00;100460.26;103196;1285;24149;-58
2022/11/25 08:07:16;;;;;;;122.10;53.50;;;;;;;4.92;100.00;100461.54;103092;1281;23067;-58
2022/11/25 08:09:47;;;;;;;124.20;54.20;;;;;;;4.96;100.00;100457.10;103127;1270;26556;-60
2022/11/25 08:12:19;;;;;;;116.30;51.30;;;;;;;4.99;100.00;100458.84;103120;1282;22479;-59
2022/11/25 08:14:50;;;;;;;121.60;53.10;;;;;;;5.02;100.00;100460.02;103219;1282;24427;-58
2022/11/25 08:17:22;;;;;;;125.30;55.70;;;;;;;5.06;100.00;100463.16;103201;1305;25423;-59
2022/11/25 08:19:54;;;;;;;124.40;54.60;;;;;;;5.10;100.00;100465.25;103309;1303;22475;-59
2022/11/25 08:22:25;;;;;;;117.30;52.10;;;;;;;5.15;100.00;100463.48;103112;1282;22496;-59
2022/11/25 08:24:58;;;;;;;125.00;55.90;;;;;;;5.18;100.00;100464.89;103166;1305;25248;-59
2022/11/25 08:27:29;;;;;;;121.60;53.40;;;;;;;5.21;100.00;100467.98;103060;1274;22610;-58
2022/11/25 08:30:01;;;;;;;114.90;54.30;;;;;;;5.23;100.00;100474.65;103205;1305;22479;-60
2022/11/25 08:32:36;;;;;;;128.80;54.10;;;;;;;5.25;100.00;100474.27;103267;1287;24083;-58
2022/11/25 08:35:09;;;;;;;110.50;49.50;;;;;;;5.26;100.00;100477.79;103147;1274;22504;-58
2022/11/25 08:37:41;;;;;;;111.80;50.40;;;;;;;5.28;100.00;100478.29;103131;1290;26519;-59
2022/11/25 08:40:14;;;;;;;110.10;50.10;;;;;;;5.31;100.00;100477.51;103051;1274;22612;-58
2022/11/25 08:42:46;;;;;;;105.40;46.60;;;;;;;5.33;100.00;100477.52;103108;1305;25289;-57
2022/11/25 08:45:17;;;;;;;112.60;45.30;;;;;;;5.35;100.00;100473.67;103122;1282;22473;-58
2022/11/25 08:47:49;;;;;;;99.20;43.00;;;;;;;5.35;100.00;100478.23;103136;1297;25382;-59
2022/11/25 08:50:23;;;;;;;101.50;43.80;;;;;;;5.37;100.00;100478.76;103085;1277;22611;-59
2022/11/25 08:52:56;;;;;;;105.10;45.20;;;;;;;5.38;100.00;100479.04;103073;1305;22482;-60
2022/11/25 08:55:28;;;;;;;100.70;43.90;;;;;;;5.41;100.00;100482.10;103134;1277;24326;-59
2022/11/25 08:58:00;;;;;;;100.40;42.80;;;;;;;5.43;100.00;100488.07;103052;1284;24320;-60
2022/11/25 09:00:31;;;;;;;97.10;43.00;;;;;;;5.43;100.00;100486.64;103105;1296;22597;-59
2022/11/25 09:03:03;;;;;;;91.60;41.20;;;;;;;5.45;100.00;100493.95;103140;1299;24443;-60
2022/11/25 09:05:39;;;;;;;94.20;41.30;;;;;;;5.45;100.00;100494.59;103102;1282;22484;-57
2022/11/25 09:08:12;;;;;;;98.00;44.10;;;;;;;5.46;100.00;100494.70;103028;1281;22480;-59
2022/11/25 09:10:44;;;;;;;94.00;41.80;;;;;;;5.50;100.00;100491.81;103213;1305;22676;-59
2022/11/25 09:13:15;;;;;;;104.50;46.70;;;;;;;5.54;100.00;100495.02;103113;1274;22485;-58
2022/11/25 09:15:48;;;;;;;103.00;43.70;;;;;;;5.58;100.00;100498.23;103128;1281;22481;-59
2022/11/25 09:18:24;;;;;;;88.30;43.00;;;;;;;5.60;100.00;100501.98;103191;1281;24285;-58
2022/11/25 09:20:56;;;;;;;93.80;43.40;;;;;;;5.61;100.00;100502.98;103096;1281;24246;-58
2022/11/25 09:23:28;;;;;;;99.10;42.10;;;;;;;5.63;100.00;100501.91;103069;1284;22477;-58
2022/11/25 09:26:01;;;;;;;93.80;41.70;;;;;;;5.64;100.00;100503.29;103232;1284;22478;-57
2022/11/25 09:28:32;;;;;;;91.50;40.10;;;;;;;5.66;100.00;100496.73;103266;1281;25353;-56
2022/11/25 09:31:09;;;;;;;94.20;41.30;;;;;;;5.70;100.00;100497.27;103134;1297;22548;-57
2022/11/25 09:33:41;;;;;;;100.30;43.30;;;;;;;5.75;100.00;100493.23;103100;1276;22498;-58
2022/11/25 09:36:16;;;;;;;97.30;42.80;;;;;;;5.81;100.00;100492.22;103120;1280;25530;-58
2022/11/25 09:38:50;;;;;;;95.00;41.70;;;;;;;5.85;100.00;100489.50;103106;1297;24318;-59
2022/11/25 09:47:42;;;;;;;94.70;42.50;;;;;;;6.01;100.00;100485.70;103057;1305;22475;-58
2022/11/25 09:50:22;;;;;;;95.30;42.10;;;;;;;6.05;100.00;100484.70;103194;1276;22499;-59
2022/11/25 09:53:04;;;;;;;95.70;42.00;;;;;;;6.10;100.00;100483.92;103037;1305;22478;-59
2022/11/25 09:55:42;;;;;;;103.60;46.70;;;;;;;6.16;100.00;100483.00;102994;1277;22472;-58
2022/11/25 09:58:26;;;;;;;101.90;47.10;;;;;;;6.23;100.00;100479.23;103058;1283;25403;-60
2022/11/25 10:01:00;;;;;;;112.20;51.00;;;;;;;6.28;100.00;100476.85;103186;1304;23102;-57
2022/11/25 10:03:39;;;;;;;111.60;51.80;;;;;;;6.33;100.00;100477.02;103146;1291;24302;-59
2022/11/25 10:06:17;;;;;;;111.50;52.10;;;;;;;6.40;100.00;100476.00;103110;1281;22469;-60
2022/11/25 10:08:51;;;;;;;102.80;46.10;;;;;;;6.45;100.00;100475.83;103110;1280;22473;-59
2022/11/25 10:11:34;;;;;;;93.90;44.10;;;;;;;6.48;100.00;100471.07;103210;1297;25519;-60
2022/11/25 10:14:12;;;;;;;100.30;42.70;;;;;;;6.51;100.00;100468.02;103054;1284;22475;-61
2022/11/25 10:16:50;;;;;;;91.10;40.10;;;;;;;6.57;100.00;100464.52;103108;1304;22929;-59
2022/11/25 10:19:38;;;;;;;91.90;40.90;;;;;;;6.61;100.00;100467.55;103113;1291;22486;-59
2022/11/25 10:22:21;;;;;;;83.20;40.70;;;;;;;6.63;100.00;100470.33;103079;1283;25379;-60
2022/11/25 10:24:57;;;;;;;81.60;40.10;;;;;;;6.63;100.00;100478.25;103089;1281;22591;-60
2022/11/25 10:27:37;;;;;;;82.20;37.70;;;;;;;6.69;100.00;100473.63;102987;1305;22698;-59
2022/11/25 10:30:17;;;;;;;80.30;38.50;;;;;;;6.72;100.00;100478.35;103132;1283;22518;-61
2022/11/25 10:33:05;;;;;;;78.30;37.50;;;;;;;6.73;100.00;100482.42;103220;1299;22476;-60
2022/11/25 10:35:41;;;;;;;84.70;35.50;;;;;;;6.77;100.00;100476.61;103092;1286;22816;-59
2022/11/25 10:38:19;;;;;;;75.00;36.00;;;;;;;6.81;100.00;100485.90;103022;1284;22601;-58
2022/11/25 10:40:55;;;;;;;68.90;32.90;;;;;;;6.85;100.00;100483.63;103143;1305;24453;-61
2022/11/25 10:43:27;;;;;;;63.70;29.50;;;;;;;6.92;100.00;100488.05;103182;1281;22585;-59
2022/11/25 10:46:08;;;;;;;67.20;30.70;;;;;;;7.00;100.00;100489.45;103052;1277;25285;-60
2022/11/25 10:48:54;;;;;;;61.80;30.20;;;;;;;7.07;100.00;100490.09;103045;1305;24244;-59
2022/11/25 10:51:46;;;;;;;63.10;28.30;;;;;;;7.12;100.00;100492.05;103123;1281;22492;-59
2022/11/25 10:54:21;;;;;;;62.60;27.90;;;;;;;7.16;100.00;100492.77;103180;1305;22687;-60
2022/11/25 10:56:55;;;;;;;55.00;25.90;;;;;;;7.22;100.00;100490.66;103210;1280;22483;-58
2022/11/25 10:59:30;;;;;;;61.20;28.10;;;;;;;7.28;100.00;100489.27;103160;1282;22492;-60
2022/11/25 11:02:24;;;;;;;54.70;27.40;;;;;;;7.32;100.00;100482.84;103092;1283;23231;-59
2022/11/25 11:05:01;;;;;;;63.10;27.30;;;;;;;7.38;100.00;100485.26;103044;1305;23374;-61
2022/11/25 11:07:37;;;;;;;64.20;26.30;;;;;;;7.42;100.00;100484.31;103173;1305;25283;-60
2022/11/25 11:10:26;;;;;;;57.40;25.80;;;;;;;7.46;100.00;100487.33;103039;1277;22537;-60
2022/11/25 11:13:04;;;;;;;58.40;25.70;;;;;;;7.49;100.00;100495.86;103129;1277;24235;-58
2022/11/25 11:15:46;;;;;;;56.70;26.10;;;;;;;7.52;100.00;100495.61;103167;1285;25180;-60
2022/11/25 11:18:26;;;;;;;61.70;25.10;;;;;;;7.57;100.00;100498.77;103090;1274;22488;-61
2022/11/25 11:21:00;;;;;;;55.60;24.10;;;;;;;7.63;100.00;100501.27;103182;1281;25366;-60
2022/11/25 11:23:47;;;;;;;49.20;21.80;;;;;;;7.65;100.00;100503.14;103335;1283;24248;-59
2022/11/25 11:26:26;;;;;;;46.30;20.50;;;;;;;7.68;100.00;100503.05;103189;1274;22491;-58
2022/11/25 11:29:05;;;;;;;44.70;17.50;;;;;;;7.70;100.00;100502.95;103097;1297;25331;-60
2022/11/25 11:31:39;;;;;;;38.80;16.90;;;;;;;7.70;100.00;100500.02;103182;1274;22504;-61
2022/11/25 11:34:49;;;;;;;37.80;16.80;;;;;;;7.72;100.00;100498.69;103019;1274;23923;-62
2022/11/25 11:37:39;;;;;;;37.70;15.90;;;;;;;7.75;100.00;100498.77;103170;1284;25347;-59
2022/11/25 11:40:30;;;;;;;34.30;14.20;;;;;;;7.75;99.96;100495.06;103121;1282;25204;-59
2022/11/25 11:43:26;;;;;;;34.10;13.70;;;;;;;7.75;99.64;100495.00;103329;1281;24242;-60